Time;durP1;ratioP1;P1;durP2;ratioP2;P2;SDS_P1;SDS_P2;PMS_P1;PMS_P2;Temp;Humidity;BMP_temperature;BMP_pressure;BME280_temperature;BME280_humidity;BME280_pressure;Samples;Min_cycle;Max_cycle;Signal;HPM_P1;HPM_P2
2022/11/18 00:03:48;;;;;;;9.65;8.43;;;;;;;;;;10268816;28;20076;-60
2022/11/18 00:08:46;;;;;;;8.45;7.50;;;;;;;;;;10269309;28;20190;-60
2022/11/18 00:19:02;;;;;;;7.88;7.07;;;;;;;;;;10268210;28;20164;-59
2022/11/18 00:24:00;;;;;;;8.23;7.43;;;;;;;;;;10270286;28;20084;-61
2022/11/18 00:29:00;;;;;;;7.63;6.93;;;;;;;;;;10276750;28;20065;-60
2022/11/18 00:33:58;;;;;;;8.10;7.30;;;;;;;;;;10276686;28;20045;-60
2022/11/18 00:38:56;;;;;;;8.82;7.93;;;;;;;;;;10276189;28;20084;-60
2022/11/18 00:43:55;;;;;;;8.82;7.93;;;;;;;;;;10275119;28;20051;-61
2022/11/18 00:48:54;;;;;;;9.02;7.68;;;;;;;;;;10275730;28;20486;-59
2022/11/18 00:53:53;;;;;;;8.50;7.70;;;;;;;;;;10275306;28;20069;-60
2022/11/18 00:58:52;;;;;;;10.07;8.50;;;;;;;;;;10257337;28;20072;-59
2022/11/18 01:03:50;;;;;;;8.98;8.18;;;;;;;;;;10238846;28;20065;-59
2022/11/18 01:08:49;;;;;;;9.25;8.35;;;;;;;;;;10252249;28;20045;-58
2022/11/18 01:13:49;;;;;;;8.75;7.95;;;;;;;;;;10275558;28;20504;-59
2022/11/18 01:18:47;;;;;;;9.13;7.85;;;;;;;;;;10274271;28;20037;-58
2022/11/18 01:23:45;;;;;;;7.95;7.22;;;;;;;;;;10272894;28;20096;-59
2022/11/18 01:28:45;;;;;;;8.88;8.07;;;;;;;;;;10274231;28;20508;-59
2022/11/18 01:33:45;;;;;;;8.85;7.95;;;;;;;;;;10272836;28;20044;-59
2022/11/18 01:38:43;;;;;;;9.88;8.77;;;;;;;;;;10272048;28;20049;-60
2022/11/18 01:43:54;;;;;;;9.40;8.25;;;;;;;;;;10273754;28;20060;-59
2022/11/18 01:48:53;;;;;;;9.93;9.02;;;;;;;;;;10271761;28;20403;-60
2022/11/18 01:53:54;;;;;;;7.93;7.22;;;;;;;;;;10271900;28;20049;-60
2022/11/18 01:58:54;;;;;;;9.55;8.27;;;;;;;;;;10272534;28;20081;-60
2022/11/18 02:03:53;;;;;;;9.57;8.57;;;;;;;;;;10271052;28;20052;-58
2022/11/18 02:08:51;;;;;;;9.80;8.40;;;;;;;;;;10272143;28;20056;-60
2022/11/18 02:13:50;;;;;;;8.73;7.88;;;;;;;;;;10270884;28;20060;-59
2022/11/18 02:18:53;;;;;;;8.85;7.90;;;;;;;;;;10272245;28;20052;-59
2022/11/18 02:24:07;;;;;;;8.90;8.10;;;;;;;;;;10271943;28;20120;-59
2022/11/18 02:29:08;;;;;;;9.07;8.17;;;;;;;;;;10270272;28;20079;-60
2022/11/18 02:34:10;;;;;;;9.52;8.63;;;;;;;;;;10271229;28;20037;-60
2022/11/18 02:39:12;;;;;;;8.70;7.90;;;;;;;;;;10271833;28;20056;-60
2022/11/18 02:44:13;;;;;;;8.45;7.65;;;;;;;;;;10267615;28;20077;-60
2022/11/18 02:49:14;;;;;;;8.15;7.35;;;;;;;;;;10267146;28;20497;-59
2022/11/18 02:54:14;;;;;;;8.40;7.60;;;;;;;;;;10267115;28;20065;-59
2022/11/18 02:59:17;;;;;;;8.00;7.30;;;;;;;;;;10269798;28;20056;-60
2022/11/18 03:04:16;;;;;;;10.57;7.03;;;;;;;;;;10270236;28;20065;-61
2022/11/18 03:09:18;;;;;;;7.88;7.07;;;;;;;;;;10269124;28;20068;-60
2022/11/18 03:14:23;;;;;;;10.05;8.68;;;;;;;;;;10269477;28;20072;-60
2022/11/18 03:19:27;;;;;;;7.47;6.70;;;;;;;;;;10268977;28;20106;-59
2022/11/18 03:24:29;;;;;;;7.32;6.55;;;;;;;;;;10269278;28;20485;-59
2022/11/18 03:29:31;;;;;;;9.88;7.28;;;;;;;;;;10269377;28;20080;-60
2022/11/18 03:34:30;;;;;;;8.35;7.55;;;;;;;;;;10269086;28;20044;-60
2022/11/18 03:39:30;;;;;;;7.65;6.85;;;;;;;;;;10268845;28;20037;-59
2022/11/18 03:44:30;;;;;;;7.57;6.88;;;;;;;;;;10268792;28;20521;-59
2022/11/18 03:49:30;;;;;;;7.90;6.53;;;;;;;;;;10270566;28;20411;-60
2022/11/18 03:54:30;;;;;;;7.30;6.60;;;;;;;;;;10247575;28;20624;-60
2022/11/18 03:59:31;;;;;;;7.90;6.88;;;;;;;;;;10239777;28;20461;-61
2022/11/18 04:04:30;;;;;;;6.85;6.25;;;;;;;;;;10276447;28;20088;-58
2022/11/18 04:09:30;;;;;;;6.95;6.25;;;;;;;;;;10276064;28;20087;-61
2022/11/18 04:14:31;;;;;;;6.90;6.20;;;;;;;;;;10275959;28;20075;-60
2022/11/18 04:19:29;;;;;;;5.78;5.25;;;;;;;;;;10275967;28;20068;-59
2022/11/18 04:24:27;;;;;;;8.20;6.50;;;;;;;;;;10281110;28;20159;-59
2022/11/18 04:29:25;;;;;;;6.93;6.20;;;;;;;;;;10268616;28;20080;-60
2022/11/18 04:34:25;;;;;;;6.03;5.43;;;;;;;;;;10254375;28;20529;-60
2022/11/18 04:39:23;;;;;;;6.38;5.78;;;;;;;;;;10257963;28;20445;-59
2022/11/18 04:44:22;;;;;;;7.93;6.05;;;;;;;;;;10274437;28;20064;-60
2022/11/18 04:49:20;;;;;;;7.18;5.78;;;;;;;;;;10274809;28;20087;-60
2022/11/18 04:54:20;;;;;;;5.72;5.20;;;;;;;;;;10275532;28;20040;-60
2022/11/18 04:59:20;;;;;;;7.70;5.80;;;;;;;;;;10257623;28;20486;-59
2022/11/18 05:04:19;;;;;;;6.43;5.82;;;;;;;;;;10253090;28;20089;-59
2022/11/18 05:09:18;;;;;;;6.00;5.40;;;;;;;;;;10260052;28;20052;-60
2022/11/18 05:14:18;;;;;;;11.77;9.90;;;;;;;;;;10273030;28;20073;-61
2022/11/18 05:19:17;;;;;;;10.38;9.18;;;;;;;;;;10268437;28;20064;-61
2022/11/18 05:24:15;;;;;;;25.83;14.13;;;;;;;;;;10274176;28;20088;-61
2022/11/18 05:29:13;;;;;;;13.48;11.10;;;;;;;;;;10272910;28;20065;-61
2022/11/18 05:34:14;;;;;;;24.13;15.82;;;;;;;;;;10274264;28;20077;-60
2022/11/18 05:39:12;;;;;;;16.08;12.52;;;;;;;;;;10259991;28;20076;-59
2022/11/18 05:44:10;;;;;;;17.20;11.75;;;;;;;;;;10274914;28;20069;-59
2022/11/18 05:49:09;;;;;;;32.35;25.33;;;;;;;;;;10266108;28;20072;-59
2022/11/18 05:54:09;;;;;;;24.45;15.05;;;;;;;;;;10264449;28;20076;-59
2022/11/18 05:59:07;;;;;;;15.15;12.35;;;;;;;;;;10278179;28;20076;-59
2022/11/18 06:04:09;;;;;;;14.45;9.93;;;;;;;;;;10276878;28;20076;-59
2022/11/18 06:09:10;;;;;;;12.70;9.70;;;;;;;;;;10276196;28;20088;-59
2022/11/18 06:14:11;;;;;;;17.10;12.80;;;;;;;;;;10275463;28;20075;-59
2022/11/18 06:19:09;;;;;;;20.73;15.98;;;;;;;;;;10274813;28;20073;-58
2022/11/18 06:24:09;;;;;;;26.85;17.83;;;;;;;;;;10268029;28;20084;-60
2022/11/18 06:29:09;;;;;;;33.13;22.10;;;;;;;;;;10265598;28;20080;-59
2022/11/18 06:34:07;;;;;;;31.50;22.15;;;;;;;;;;10268854;28;20068;-61
2022/11/18 06:39:06;;;;;;;32.78;24.25;;;;;;;;;;10268873;28;20487;-59
2022/11/18 06:44:06;;;;;;;35.65;23.85;;;;;;;;;;10270457;28;20080;-58
2022/11/18 06:49:04;;;;;;;34.78;20.35;;;;;;;;;;10261945;28;20060;-59
2022/11/18 06:54:02;;;;;;;31.05;22.80;;;;;;;;;;10271488;28;20651;-58
2022/11/18 06:59:09;;;;;;;52.20;33.35;;;;;;;;;;10273093;28;20088;-60
2022/11/18 07:04:07;;;;;;;26.02;16.88;;;;;;;;;;10263907;28;20068;-60
2022/11/18 07:09:06;;;;;;;20.35;16.05;;;;;;;;;;10268267;28;20064;-58
2022/11/18 07:14:05;;;;;;;23.65;15.35;;;;;;;;;;10269632;28;20442;-60
2022/11/18 07:19:09;;;;;;;18.95;13.93;;;;;;;;;;10272461;28;20053;-58
2022/11/18 07:24:08;;;;;;;24.52;13.18;;;;;;;;;;10268400;28;20087;-60
2022/11/18 07:29:06;;;;;;;20.17;14.13;;;;;;;;;;10270648;28;20053;-61
2022/11/18 07:34:05;;;;;;;22.77;14.98;;;;;;;;;;10271556;28;20076;-61
2022/11/18 07:39:05;;;;;;;18.13;13.63;;;;;;;;;;10278818;28;20080;-60
2022/11/18 17:13:29;;;;;;;113.90;97.45;;;;;;;;;;10239955;28;20084;-61
2022/11/18 17:18:27;;;;;;;77.88;66.25;;;;;;;;;;10256151;28;20080;-61
2022/11/18 17:23:27;;;;;;;52.92;46.00;;;;;;;;;;10260490;28;20073;-60
2022/11/18 17:28:25;;;;;;;71.35;56.92;;;;;;;;;;10263280;28;20555;-61
2022/11/18 17:33:25;;;;;;;81.57;71.07;;;;;;;;;;10274207;28;20068;-61
2022/11/18 17:38:23;;;;;;;73.65;64.57;;;;;;;;;;10273619;28;20040;-61
2022/11/18 17:43:22;;;;;;;69.45;58.50;;;;;;;;;;10274637;28;20543;-60
2022/11/18 17:48:20;;;;;;;44.78;38.20;;;;;;;;;;10263310;28;20068;-61
2022/11/18 17:53:21;;;;;;;51.42;44.88;;;;;;;;;;10268874;28;20136;-60
2022/11/18 17:58:19;;;;;;;66.13;53.13;;;;;;;;;;10264873;28;20094;-61
2022/11/18 18:03:17;;;;;;;54.97;47.28;;;;;;;;;;10271624;28;20073;-61
2022/11/18 18:08:15;;;;;;;59.92;46.95;;;;;;;;;;10270356;28;20057;-61
2022/11/18 18:18:31;;;;;;;64.88;50.13;;;;;;;;;;10269312;28;20486;-61
2022/11/18 18:23:29;;;;;;;63.42;49.47;;;;;;;;;;10267539;28;20076;-60
2022/11/18 18:28:29;;;;;;;79.43;60.50;;;;;;;;;;10262882;28;20099;-61
2022/11/18 18:33:27;;;;;;;88.45;56.88;;;;;;;;;;10263802;28;20555;-60
2022/11/18 18:38:25;;;;;;;67.28;46.80;;;;;;;;;;10257360;28;20462;-60
2022/11/18 18:43:24;;;;;;;60.72;39.60;;;;;;;;;;10259488;28;20065;-60
2022/11/18 18:48:23;;;;;;;49.30;35.53;;;;;;;;;;10260958;28;20079;-60
2022/11/18 18:53:21;;;;;;;40.78;30.45;;;;;;;;;;10264825;28;20557;-61
2022/11/18 18:58:19;;;;;;;41.28;27.83;;;;;;;;;;10260850;28;20075;-61
2022/11/18 19:03:19;;;;;;;52.83;43.63;;;;;;;;;;10245442;28;20084;-60
2022/11/18 19:08:18;;;;;;;38.72;30.10;;;;;;;;;;10231367;28;20076;-61
2022/11/18 19:13:17;;;;;;;97.05;71.22;;;;;;;;;;10246255;28;20045;-60
2022/11/18 19:18:15;;;;;;;62.95;43.05;;;;;;;;;;10265874;28;20092;-61
2022/11/18 19:23:13;;;;;;;43.08;33.88;;;;;;;;;;10266829;28;20049;-60
2022/11/18 19:28:13;;;;;;;50.15;39.42;;;;;;;;;;10267753;28;20065;-61
2022/11/18 19:33:11;;;;;;;37.40;28.15;;;;;;;;;;10267598;28;20076;-61
2022/11/18 19:38:09;;;;;;;36.92;30.75;;;;;;;;;;10268784;28;20065;-62
2022/11/18 19:43:08;;;;;;;32.70;28.85;;;;;;;;;;10268077;28;20077;-60
2022/11/18 19:48:07;;;;;;;35.03;28.23;;;;;;;;;;10266598;28;20511;-59
2022/11/18 19:53:30;;;;;;;34.88;29.05;;;;;;;;;;10268080;28;20069;-60
2022/11/18 19:58:24;;;;;;;32.33;28.00;;;;;;;;;;10268506;28;20072;-60
2022/11/18 20:03:24;;;;;;;26.40;22.27;;;;;;;;;;10267160;28;20072;-61
2022/11/18 20:08:22;;;;;;;27.92;22.27;;;;;;;;;;10252005;28;20418;-60
2022/11/18 20:13:21;;;;;;;25.55;22.20;;;;;;;;;;10235603;28;20060;-60
2022/11/18 20:18:22;;;;;;;27.70;22.85;;;;;;;;;;10244997;28;20069;-62
2022/11/18 20:23:21;;;;;;;23.75;19.83;;;;;;;;;;10264571;28;20073;-61
2022/11/18 20:28:19;;;;;;;22.00;19.20;;;;;;;;;;10267535;28;20069;-60
2022/11/18 20:33:17;;;;;;;23.55;18.48;;;;;;;;;;10266696;28;20116;-61
2022/11/18 20:38:16;;;;;;;23.20;20.42;;;;;;;;;;10251354;28;20505;-61
2022/11/18 20:43:15;;;;;;;26.17;22.70;;;;;;;;;;10241936;28;20076;-60
2022/11/18 20:48:13;;;;;;;20.67;18.50;;;;;;;;;;10252832;28;20510;-60
2022/11/18 20:53:12;;;;;;;20.80;18.60;;;;;;;;;;10269689;28;20061;-59
2022/11/18 20:58:11;;;;;;;33.60;29.98;;;;;;;;;;10273627;28;20487;-60
2022/11/18 21:03:11;;;;;;;25.98;23.17;;;;;;;;;;10273892;28;20041;-61
2022/11/18 21:08:09;;;;;;;24.58;19.10;;;;;;;;;;10272756;28;20057;-61
2022/11/18 21:18:28;;;;;;;32.67;21.73;;;;;;;;;;10272904;28;20107;-61
2022/11/18 21:23:26;;;;;;;20.67;15.88;;;;;;;;;;10271889;28;20049;-62
2022/11/18 21:28:26;;;;;;;22.27;17.67;;;;;;;;;;10273314;28;20060;-61
2022/11/18 21:33:26;;;;;;;24.05;19.20;;;;;;;;;;10272921;28;20061;-60
2022/11/18 21:38:24;;;;;;;15.48;11.88;;;;;;;;;;10272459;28;20104;-60
2022/11/18 21:43:22;;;;;;;16.02;13.85;;;;;;;;;;10272120;28;20068;-62
2022/11/18 21:48:42;;;;;;;13.95;11.00;;;;;;;;;;10273169;28;20065;-60
2022/11/18 21:53:40;;;;;;;15.68;13.27;;;;;;;;;;10271796;28;20079;-59
2022/11/18 21:58:38;;;;;;;9.85;8.45;;;;;;;;;;10271820;28;20422;-61
2022/11/18 22:03:37;;;;;;;10.68;9.57;;;;;;;;;;10271222;28;20524;-61
2022/11/18 22:08:37;;;;;;;10.40;8.65;;;;;;;;;;10255657;28;20069;-61
2022/11/18 22:13:35;;;;;;;8.43;7.57;;;;;;;;;;10238466;28;20083;-61
2022/11/18 22:18:34;;;;;;;10.30;8.27;;;;;;;;;;10249926;28;20072;-61
2022/11/18 22:23:33;;;;;;;10.23;8.00;;;;;;;;;;10268216;28;20065;-62
2022/11/18 22:28:33;;;;;;;8.23;6.88;;;;;;;;;;10254645;28;20083;-62
2022/11/18 22:33:31;;;;;;;43.42;28.70;;;;;;;;;;10246499;28;20048;-60
2022/11/18 22:38:29;;;;;;;39.40;26.73;;;;;;;;;;10252345;28;20046;-60
2022/11/18 22:43:28;;;;;;;41.45;27.95;;;;;;;;;;10268824;28;20076;-60
2022/11/18 22:48:27;;;;;;;28.75;22.05;;;;;;;;;;10268513;28;20068;-61
2022/11/18 22:53:25;;;;;;;12.68;10.85;;;;;;;;;;10265882;28;20072;-62
2022/11/18 22:58:24;;;;;;;18.08;13.95;;;;;;;;;;10252588;28;20064;-61
2022/11/18 23:03:22;;;;;;;28.08;22.92;;;;;;;;;;10259249;28;20065;-61
2022/11/18 23:08:22;;;;;;;7.63;6.45;;;;;;;;;;10258640;28;20479;-61
2022/11/18 23:18:35;;;;;;;;;;;;;;;;;;10273669;28;20064;-61
2022/11/18 23:23:35;;;;;;;20.05;18.05;;;;;;;;;;10270164;28;20372;-61
2022/11/18 23:28:33;;;;;;;26.95;19.92;;;;;;;;;;10268296;28;20072;-61
2022/11/18 23:33:32;;;;;;;6.43;5.82;;;;;;;;;;10269942;28;20061;-60
2022/11/18 23:38:30;;;;;;;12.57;10.13;;;;;;;;;;10269046;28;20065;-61
2022/11/18 23:43:30;;;;;;;17.58;15.75;;;;;;;;;;10270124;28;20063;-60
2022/11/18 23:48:31;;;;;;;18.30;14.02;;;;;;;;;;10269693;28;20072;-60
2022/11/18 23:53:32;;;;;;;20.55;17.75;;;;;;;;;;10268715;28;20072;-60
2022/11/18 23:58:31;;;;;;;12.55;11.35;;;;;;;;;;10269895;28;20049;-61
